Bath, Maine
Current Conditions -  °F | °C
As of 8:05 PM on Tuesday 27 Jan 2015 (Local Time) from KIWI Reporting Station
Light Snow Light Snow  
Wind Chill: -1°   Ceiling: 3100
Heat Index: 13°   Visibility: 2.5mi
Dew Point:   Wind: 12mph
Humidity: 77%   Direction: 360°N
Pressure: 29.55"   Gusts: 23mph
Location:  43.91°N, 69.81°W
Report Text: KIWI 280105Z AUTO 36010G20KT 320V050 2 1/2SM -SN BKN031 OVC040 M11/M14 A2955 RMK AO2 P0000 T11061139
Loading
Personal Weather Stations






























Interactive Weather Map New forecast layout! Learn more

10-Day Weather Forecast

Advertisements
Track Severe Weather on mobile